sensor_id;sensor_type;location;lat;lon;timestamp;P1;durP1;ratioP1;P2;durP2;ratioP2
67140;SDS011;54058;52.010;5.546;2023-04-15T00:00:53;10.10;;;3.00;;
67140;SDS011;54058;52.010;5.546;2023-04-15T00:03:19;5.75;;;2.90;;
67140;SDS011;54058;52.010;5.546;2023-04-15T00:05:44;4.93;;;2.55;;
67140;SDS011;54058;52.010;5.546;2023-04-15T00:08:10;4.95;;;3.10;;
67140;SDS011;54058;52.010;5.546;2023-04-15T00:10:36;8.68;;;2.90;;
67140;SDS011;54058;52.010;5.546;2023-04-15T00:13:02;5.28;;;2.80;;
67140;SDS011;54058;52.010;5.546;2023-04-15T00:15:28;4.13;;;3.03;;
67140;SDS011;54058;52.010;5.546;2023-04-15T00:17:54;5.57;;;3.38;;
67140;SDS011;54058;52.010;5.546;2023-04-15T00:20:19;4.70;;;3.03;;
67140;SDS011;54058;52.010;5.546;2023-04-15T00:22:45;9.05;;;3.35;;
67140;SDS011;54058;52.010;5.546;2023-04-15T00:25:11;3.33;;;2.92;;
67140;SDS011;54058;52.010;5.546;2023-04-15T00:27:37;7.80;;;3.05;;
67140;SDS011;54058;52.010;5.546;2023-04-15T00:30:02;7.72;;;3.55;;
67140;SDS011;54058;52.010;5.546;2023-04-15T00:32:29;7.23;;;3.43;;
67140;SDS011;54058;52.010;5.546;2023-04-15T00:34:55;5.55;;;3.00;;
67140;SDS011;54058;52.010;5.546;2023-04-15T00:37:21;7.18;;;2.67;;
67140;SDS011;54058;52.010;5.546;2023-04-15T00:39:47;6.45;;;2.97;;
67140;SDS011;54058;52.010;5.546;2023-04-15T00:42:12;5.15;;;2.80;;
67140;SDS011;54058;52.010;5.546;2023-04-15T00:44:39;9.00;;;3.13;;
67140;SDS011;54058;52.010;5.546;2023-04-15T00:47:05;9.93;;;2.88;;
67140;SDS011;54058;52.010;5.546;2023-04-15T00:49:31;10.13;;;3.50;;
67140;SDS011;54058;52.010;5.546;2023-04-15T00:51:57;4.22;;;3.10;;
67140;SDS011;54058;52.010;5.546;2023-04-15T00:54:22;10.70;;;3.25;;
67140;SDS011;54058;52.010;5.546;2023-04-15T00:56:48;10.90;;;3.20;;
67140;SDS011;54058;52.010;5.546;2023-04-15T00:59:13;7.15;;;3.25;;
67140;SDS011;54058;52.010;5.546;2023-04-15T01:04:07;7.95;;;3.22;;
67140;SDS011;54058;52.010;5.546;2023-04-15T01:06:35;5.50;;;3.20;;
67140;SDS011;54058;52.010;5.546;2023-04-15T01:09:01;6.60;;;3.30;;
67140;SDS011;54058;52.010;5.546;2023-04-15T01:11:27;4.95;;;3.00;;
67140;SDS011;54058;52.010;5.546;2023-04-15T01:13:54;5.03;;;3.23;;
67140;SDS011;54058;52.010;5.546;2023-04-15T01:16:21;5.82;;;3.40;;
67140;SDS011;54058;52.010;5.546;2023-04-15T01:18:47;7.07;;;2.85;;
67140;SDS011;54058;52.010;5.546;2023-04-15T01:21:13;8.88;;;3.45;;
67140;SDS011;54058;52.010;5.546;2023-04-15T01:23:38;11.32;;;3.00;;
67140;SDS011;54058;52.010;5.546;2023-04-15T01:26:04;6.15;;;3.38;;
67140;SDS011;54058;52.010;5.546;2023-04-15T01:28:33;8.60;;;3.00;;
67140;SDS011;54058;52.010;5.546;2023-04-15T01:31:09;8.07;;;3.27;;
67140;SDS011;54058;52.010;5.546;2023-04-15T01:33:38;9.77;;;3.22;;
67140;SDS011;54058;52.010;5.546;2023-04-15T01:36:06;5.47;;;2.92;;
67140;SDS011;54058;52.010;5.546;2023-04-15T01:40:59;4.78;;;3.17;;
67140;SDS011;54058;52.010;5.546;2023-04-15T01:43:25;6.72;;;3.00;;
67140;SDS011;54058;52.010;5.546;2023-04-15T01:45:51;7.43;;;3.60;;
67140;SDS011;54058;52.010;5.546;2023-04-15T01:48:16;5.88;;;3.40;;
67140;SDS011;54058;52.010;5.546;2023-04-15T01:50:43;5.57;;;3.38;;
67140;SDS011;54058;52.010;5.546;2023-04-15T01:53:09;7.07;;;3.55;;
67140;SDS011;54058;52.010;5.546;2023-04-15T01:55:35;8.25;;;3.40;;
67140;SDS011;54058;52.010;5.546;2023-04-15T01:58:01;4.25;;;3.17;;
67140;SDS011;54058;52.010;5.546;2023-04-15T02:00:27;11.10;;;4.00;;
67140;SDS011;54058;52.010;5.546;2023-04-15T02:02:52;5.22;;;3.40;;
67140;SDS011;54058;52.010;5.546;2023-04-15T02:05:18;7.40;;;3.25;;
67140;SDS011;54058;52.010;5.546;2023-04-15T02:07:44;7.13;;;3.42;;
67140;SDS011;54058;52.010;5.546;2023-04-15T02:10:10;7.43;;;3.28;;
67140;SDS011;54058;52.010;5.546;2023-04-15T02:12:37;3.38;;;3.08;;
67140;SDS011;54058;52.010;5.546;2023-04-15T02:15:04;5.70;;;3.05;;
67140;SDS011;54058;52.010;5.546;2023-04-15T02:17:32;4.82;;;3.35;;
67140;SDS011;54058;52.010;5.546;2023-04-15T02:19:59;4.38;;;3.30;;
67140;SDS011;54058;52.010;5.546;2023-04-15T02:22:25;5.38;;;3.20;;
67140;SDS011;54058;52.010;5.546;2023-04-15T02:24:50;9.50;;;3.80;;
67140;SDS011;54058;52.010;5.546;2023-04-15T02:27:16;6.00;;;3.35;;
67140;SDS011;54058;52.010;5.546;2023-04-15T02:29:43;6.50;;;3.38;;
67140;SDS011;54058;52.010;5.546;2023-04-15T02:32:10;5.63;;;3.20;;
67140;SDS011;54058;52.010;5.546;2023-04-15T02:34:36;6.03;;;3.50;;
67140;SDS011;54058;52.010;5.546;2023-04-15T02:37:05;5.40;;;3.78;;
67140;SDS011;54058;52.010;5.546;2023-04-15T02:39:34;6.65;;;3.50;;
67140;SDS011;54058;52.010;5.546;2023-04-15T02:42:00;6.38;;;3.20;;
67140;SDS011;54058;52.010;5.546;2023-04-15T02:44:29;7.38;;;3.85;;
67140;SDS011;54058;52.010;5.546;2023-04-15T02:46:56;7.20;;;3.75;;
67140;SDS011;54058;52.010;5.546;2023-04-15T02:49:23;7.63;;;3.85;;
67140;SDS011;54058;52.010;5.546;2023-04-15T02:51:49;6.23;;;3.63;;
67140;SDS011;54058;52.010;5.546;2023-04-15T02:54:16;5.68;;;3.85;;
67140;SDS011;54058;52.010;5.546;2023-04-15T02:56:42;4.07;;;3.40;;
67140;SDS011;54058;52.010;5.546;2023-04-15T02:59:07;6.47;;;3.75;;
67140;SDS011;54058;52.010;5.546;2023-04-15T03:01:33;5.28;;;3.38;;
67140;SDS011;54058;52.010;5.546;2023-04-15T03:03:59;6.72;;;4.65;;
67140;SDS011;54058;52.010;5.546;2023-04-15T03:06:24;6.22;;;4.45;;
67140;SDS011;54058;52.010;5.546;2023-04-15T03:08:50;11.10;;;4.05;;
67140;SDS011;54058;52.010;5.546;2023-04-15T03:11:15;9.93;;;4.95;;
67140;SDS011;54058;52.010;5.546;2023-04-15T03:13:41;6.95;;;4.43;;
67140;SDS011;54058;52.010;5.546;2023-04-15T03:16:07;6.43;;;4.00;;
67140;SDS011;54058;52.010;5.546;2023-04-15T03:18:33;10.50;;;4.78;;
67140;SDS011;54058;52.010;5.546;2023-04-15T03:20:59;9.90;;;4.43;;
67140;SDS011;54058;52.010;5.546;2023-04-15T03:23:25;7.05;;;4.80;;
67140;SDS011;54058;52.010;5.546;2023-04-15T03:25:50;9.45;;;5.00;;
67140;SDS011;54058;52.010;5.546;2023-04-15T03:28:16;7.93;;;4.03;;
67140;SDS011;54058;52.010;5.546;2023-04-15T03:30:42;8.05;;;4.85;;
67140;SDS011;54058;52.010;5.546;2023-04-15T03:33:07;10.20;;;4.80;;
67140;SDS011;54058;52.010;5.546;2023-04-15T03:35:33;8.80;;;4.68;;
67140;SDS011;54058;52.010;5.546;2023-04-15T03:37:59;9.73;;;3.90;;
67140;SDS011;54058;52.010;5.546;2023-04-15T03:40:24;10.02;;;4.90;;
67140;SDS011;54058;52.010;5.546;2023-04-15T03:42:50;7.95;;;4.47;;
67140;SDS011;54058;52.010;5.546;2023-04-15T03:45:16;7.22;;;4.78;;
67140;SDS011;54058;52.010;5.546;2023-04-15T03:47:42;9.88;;;4.50;;
67140;SDS011;54058;52.010;5.546;2023-04-15T03:50:07;10.15;;;4.55;;
67140;SDS011;54058;52.010;5.546;2023-04-15T03:52:33;9.25;;;4.45;;
67140;SDS011;54058;52.010;5.546;2023-04-15T03:54:59;6.57;;;4.70;;
67140;SDS011;54058;52.010;5.546;2023-04-15T03:57:25;10.57;;;5.45;;
67140;SDS011;54058;52.010;5.546;2023-04-15T03:59:51;8.48;;;4.53;;
67140;SDS011;54058;52.010;5.546;2023-04-15T04:02:16;8.35;;;4.90;;
67140;SDS011;54058;52.010;5.546;2023-04-15T04:04:42;10.63;;;5.28;;
67140;SDS011;54058;52.010;5.546;2023-04-15T04:07:08;9.32;;;5.45;;
67140;SDS011;54058;52.010;5.546;2023-04-15T04:09:39;8.75;;;5.35;;
67140;SDS011;54058;52.010;5.546;2023-04-15T04:12:06;8.17;;;5.37;;
67140;SDS011;54058;52.010;5.546;2023-04-15T04:14:31;9.98;;;5.93;;
67140;SDS011;54058;52.010;5.546;2023-04-15T04:16:57;7.82;;;5.18;;
67140;SDS011;54058;52.010;5.546;2023-04-15T04:19:22;9.50;;;4.95;;
67140;SDS011;54058;52.010;5.546;2023-04-15T04:21:48;8.38;;;5.95;;
67140;SDS011;54058;52.010;5.546;2023-04-15T04:24:13;11.18;;;5.60;;
67140;SDS011;54058;52.010;5.546;2023-04-15T04:26:39;9.68;;;5.00;;
67140;SDS011;54058;52.010;5.546;2023-04-15T04:29:05;8.55;;;6.13;;
67140;SDS011;54058;52.010;5.546;2023-04-15T04:31:31;8.68;;;5.00;;
67140;SDS011;54058;52.010;5.546;2023-04-15T04:33:56;7.20;;;5.22;;
67140;SDS011;54058;52.010;5.546;2023-04-15T04:36:22;11.90;;;5.55;;
67140;SDS011;54058;52.010;5.546;2023-04-15T04:38:47;9.98;;;5.65;;
67140;SDS011;54058;52.010;5.546;2023-04-15T04:41:13;7.60;;;4.80;;
67140;SDS011;54058;52.010;5.546;2023-04-15T04:43:39;10.30;;;4.47;;
67140;SDS011;54058;52.010;5.546;2023-04-15T04:46:04;5.35;;;4.40;;
67140;SDS011;54058;52.010;5.546;2023-04-15T04:48:30;7.20;;;4.95;;
67140;SDS011;54058;52.010;5.546;2023-04-15T04:50:55;8.00;;;4.57;;
67140;SDS011;54058;52.010;5.546;2023-04-15T04:53:21;9.55;;;5.32;;
67140;SDS011;54058;52.010;5.546;2023-04-15T04:55:46;7.50;;;4.32;;
67140;SDS011;54058;52.010;5.546;2023-04-15T04:58:12;6.43;;;4.30;;
67140;SDS011;54058;52.010;5.546;2023-04-15T05:00:39;5.50;;;3.67;;
67140;SDS011;54058;52.010;5.546;2023-04-15T05:03:06;5.57;;;3.90;;
67140;SDS011;54058;52.010;5.546;2023-04-15T05:05:31;6.65;;;4.03;;
67140;SDS011;54058;52.010;5.546;2023-04-15T05:07:57;6.47;;;4.13;;
67140;SDS011;54058;52.010;5.546;2023-04-15T05:10:22;5.57;;;3.75;;
67140;SDS011;54058;52.010;5.546;2023-04-15T05:12:48;4.32;;;3.88;;
67140;SDS011;54058;52.010;5.546;2023-04-15T05:15:14;7.45;;;3.90;;
67140;SDS011;54058;52.010;5.546;2023-04-15T05:17:40;4.53;;;3.53;;
67140;SDS011;54058;52.010;5.546;2023-04-15T05:20:06;4.47;;;3.30;;
67140;SDS011;54058;52.010;5.546;2023-04-15T05:22:32;5.93;;;3.92;;
67140;SDS011;54058;52.010;5.546;2023-04-15T05:24:57;4.72;;;3.60;;
67140;SDS011;54058;52.010;5.546;2023-04-15T05:27:23;4.43;;;3.80;;
67140;SDS011;54058;52.010;5.546;2023-04-15T05:29:49;6.85;;;4.22;;
67140;SDS011;54058;52.010;5.546;2023-04-15T05:32:15;6.22;;;4.00;;
67140;SDS011;54058;52.010;5.546;2023-04-15T05:34:41;6.82;;;4.22;;
67140;SDS011;54058;52.010;5.546;2023-04-15T05:37:06;6.10;;;3.72;;
67140;SDS011;54058;52.010;5.546;2023-04-15T05:39:32;5.43;;;4.28;;
67140;SDS011;54058;52.010;5.546;2023-04-15T05:41:58;8.18;;;4.05;;
67140;SDS011;54058;52.010;5.546;2023-04-15T05:44:24;7.95;;;4.10;;
67140;SDS011;54058;52.010;5.546;2023-04-15T05:46:50;8.30;;;4.40;;
67140;SDS011;54058;52.010;5.546;2023-04-15T05:49:16;20.42;;;4.38;;
67140;SDS011;54058;52.010;5.546;2023-04-15T05:51:41;8.63;;;4.40;;
67140;SDS011;54058;52.010;5.546;2023-04-15T05:54:07;6.85;;;3.80;;
67140;SDS011;54058;52.010;5.546;2023-04-15T05:56:32;4.97;;;3.35;;
67140;SDS011;54058;52.010;5.546;2023-04-15T05:58:58;7.40;;;4.57;;
67140;SDS011;54058;52.010;5.546;2023-04-15T06:01:23;6.88;;;4.60;;
67140;SDS011;54058;52.010;5.546;2023-04-15T06:03:50;6.57;;;4.82;;
67140;SDS011;54058;52.010;5.546;2023-04-15T06:06:15;8.10;;;4.20;;
67140;SDS011;54058;52.010;5.546;2023-04-15T06:08:41;7.65;;;4.90;;
67140;SDS011;54058;52.010;5.546;2023-04-15T06:11:06;6.75;;;4.07;;
67140;SDS011;54058;52.010;5.546;2023-04-15T06:13:32;9.45;;;4.70;;
67140;SDS011;54058;52.010;5.546;2023-04-15T06:15:58;6.13;;;4.20;;
67140;SDS011;54058;52.010;5.546;2023-04-15T06:18:24;7.57;;;4.68;;
67140;SDS011;54058;52.010;5.546;2023-04-15T06:20:49;7.60;;;5.13;;
67140;SDS011;54058;52.010;5.546;2023-04-15T06:23:15;7.72;;;5.05;;
67140;SDS011;54058;52.010;5.546;2023-04-15T06:25:41;7.88;;;4.38;;
67140;SDS011;54058;52.010;5.546;2023-04-15T06:28:06;10.35;;;4.40;;
67140;SDS011;54058;52.010;5.546;2023-04-15T06:30:32;7.82;;;5.07;;
67140;SDS011;54058;52.010;5.546;2023-04-15T06:32:59;6.70;;;4.78;;
67140;SDS011;54058;52.010;5.546;2023-04-15T06:35:27;13.35;;;4.97;;
67140;SDS011;54058;52.010;5.546;2023-04-15T06:37:52;7.63;;;4.85;;
67140;SDS011;54058;52.010;5.546;2023-04-15T06:40:18;7.93;;;4.70;;
67140;SDS011;54058;52.010;5.546;2023-04-15T06:42:44;10.10;;;6.80;;
67140;SDS011;54058;52.010;5.546;2023-04-15T06:45:10;10.60;;;6.63;;
67140;SDS011;54058;52.010;5.546;2023-04-15T06:47:36;9.82;;;6.60;;
67140;SDS011;54058;52.010;5.546;2023-04-15T06:50:01;8.98;;;6.40;;
67140;SDS011;54058;52.010;5.546;2023-04-15T06:52:27;10.53;;;6.53;;
67140;SDS011;54058;52.010;5.546;2023-04-15T06:54:53;11.88;;;7.68;;
67140;SDS011;54058;52.010;5.546;2023-04-15T06:57:19;13.50;;;8.00;;
67140;SDS011;54058;52.010;5.546;2023-04-15T06:59:44;12.05;;;7.38;;
67140;SDS011;54058;52.010;5.546;2023-04-15T07:02:11;11.60;;;8.13;;
67140;SDS011;54058;52.010;5.546;2023-04-15T07:04:38;12.45;;;8.98;;
67140;SDS011;54058;52.010;5.546;2023-04-15T07:07:04;9.80;;;7.40;;
67140;SDS011;54058;52.010;5.546;2023-04-15T07:09:30;11.15;;;8.27;;
67140;SDS011;54058;52.010;5.546;2023-04-15T07:11:56;11.00;;;8.13;;
67140;SDS011;54058;52.010;5.546;2023-04-15T07:14:22;12.35;;;8.60;;
67140;SDS011;54058;52.010;5.546;2023-04-15T07:16:47;11.00;;;7.25;;
67140;SDS011;54058;52.010;5.546;2023-04-15T07:19:13;11.93;;;7.35;;
67140;SDS011;54058;52.010;5.546;2023-04-15T07:21:38;11.90;;;7.55;;
67140;SDS011;54058;52.010;5.546;2023-04-15T07:24:04;14.77;;;7.68;;
67140;SDS011;54058;52.010;5.546;2023-04-15T07:26:30;9.82;;;6.90;;
67140;SDS011;54058;52.010;5.546;2023-04-15T07:28:56;9.55;;;6.78;;
67140;SDS011;54058;52.010;5.546;2023-04-15T07:31:21;9.52;;;6.90;;
67140;SDS011;54058;52.010;5.546;2023-04-15T07:33:47;9.90;;;7.32;;
67140;SDS011;54058;52.010;5.546;2023-04-15T07:36:13;10.30;;;7.30;;
67140;SDS011;54058;52.010;5.546;2023-04-15T07:38:39;7.93;;;6.38;;
67140;SDS011;54058;52.010;5.546;2023-04-15T07:41:05;11.50;;;6.40;;
67140;SDS011;54058;52.010;5.546;2023-04-15T07:43:31;7.57;;;5.70;;
67140;SDS011;54058;52.010;5.546;2023-04-15T07:45:56;8.10;;;5.88;;
67140;SDS011;54058;52.010;5.546;2023-04-15T07:48:22;7.78;;;5.38;;
67140;SDS011;54058;52.010;5.546;2023-04-15T07:50:47;8.77;;;5.07;;
67140;SDS011;54058;52.010;5.546;2023-04-15T07:53:13;8.20;;;5.78;;
67140;SDS011;54058;52.010;5.546;2023-04-15T07:55:39;9.40;;;5.43;;
67140;SDS011;54058;52.010;5.546;2023-04-15T07:58:05;8.48;;;5.78;;
67140;SDS011;54058;52.010;5.546;2023-04-15T08:00:30;7.03;;;5.07;;
67140;SDS011;54058;52.010;5.546;2023-04-15T08:02:56;8.43;;;4.63;;
67140;SDS011;54058;52.010;5.546;2023-04-15T08:05:23;10.90;;;4.95;;
67140;SDS011;54058;52.010;5.546;2023-04-15T08:07:49;8.00;;;5.03;;
67140;SDS011;54058;52.010;5.546;2023-04-15T08:10:15;8.52;;;5.10;;
67140;SDS011;54058;52.010;5.546;2023-04-15T08:12:41;6.28;;;4.80;;
67140;SDS011;54058;52.010;5.546;2023-04-15T08:15:07;7.68;;;5.07;;
67140;SDS011;54058;52.010;5.546;2023-04-15T08:17:33;7.70;;;4.80;;
67140;SDS011;54058;52.010;5.546;2023-04-15T08:19:59;10.80;;;5.00;;
67140;SDS011;54058;52.010;5.546;2023-04-15T08:22:24;5.95;;;4.40;;
67140;SDS011;54058;52.010;5.546;2023-04-15T08:24:51;9.77;;;4.38;;
67140;SDS011;54058;52.010;5.546;2023-04-15T08:27:17;5.68;;;4.30;;
67140;SDS011;54058;52.010;5.546;2023-04-15T08:29:43;6.30;;;4.45;;
67140;SDS011;54058;52.010;5.546;2023-04-15T08:32:09;11.30;;;4.40;;
67140;SDS011;54058;52.010;5.546;2023-04-15T08:34:35;4.95;;;4.25;;
67140;SDS011;54058;52.010;5.546;2023-04-15T08:37:00;5.88;;;4.22;;
67140;SDS011;54058;52.010;5.546;2023-04-15T08:39:26;5.80;;;4.38;;
67140;SDS011;54058;52.010;5.546;2023-04-15T08:41:58;5.72;;;4.63;;
67140;SDS011;54058;52.010;5.546;2023-04-15T08:44:31;9.35;;;5.03;;
67140;SDS011;54058;52.010;5.546;2023-04-15T08:47:01;5.03;;;4.40;;
67140;SDS011;54058;52.010;5.546;2023-04-15T08:49:27;8.27;;;5.13;;
67140;SDS011;54058;52.010;5.546;2023-04-15T08:51:54;9.18;;;4.90;;
67140;SDS011;54058;52.010;5.546;2023-04-15T08:54:22;6.75;;;5.00;;
67140;SDS011;54058;52.010;5.546;2023-04-15T08:56:48;6.80;;;4.65;;
67140;SDS011;54058;52.010;5.546;2023-04-15T08:59:14;7.37;;;4.77;;
67140;SDS011;54058;52.010;5.546;2023-04-15T09:01:40;8.10;;;4.77;;
67140;SDS011;54058;52.010;5.546;2023-04-15T09:04:06;5.50;;;3.80;;
67140;SDS011;54058;52.010;5.546;2023-04-15T09:06:32;5.72;;;3.80;;
67140;SDS011;54058;52.010;5.546;2023-04-15T09:08:58;7.37;;;3.90;;
67140;SDS011;54058;52.010;5.546;2023-04-15T09:11:24;7.20;;;4.40;;
67140;SDS011;54058;52.010;5.546;2023-04-15T09:13:51;5.22;;;4.25;;
67140;SDS011;54058;52.010;5.546;2023-04-15T09:16:16;7.30;;;4.28;;
67140;SDS011;54058;52.010;5.546;2023-04-15T09:18:42;6.47;;;4.50;;
67140;SDS011;54058;52.010;5.546;2023-04-15T09:21:12;7.93;;;4.47;;
67140;SDS011;54058;52.010;5.546;2023-04-15T09:23:40;8.10;;;4.10;;
67140;SDS011;54058;52.010;5.546;2023-04-15T09:26:19;5.90;;;3.60;;
67140;SDS011;54058;52.010;5.546;2023-04-15T09:28:54;3.65;;;2.92;;
67140;SDS011;54058;52.010;5.546;2023-04-15T09:31:34;3.65;;;3.10;;
67140;SDS011;54058;52.010;5.546;2023-04-15T09:34:03;5.82;;;2.83;;
67140;SDS011;54058;52.010;5.546;2023-04-15T09:36:35;4.43;;;2.85;;
67140;SDS011;54058;52.010;5.546;2023-04-15T09:39:11;4.47;;;3.63;;
67140;SDS011;54058;52.010;5.546;2023-04-15T09:41:38;5.32;;;3.17;;
67140;SDS011;54058;52.010;5.546;2023-04-15T09:44:04;5.10;;;2.78;;
67140;SDS011;54058;52.010;5.546;2023-04-15T09:46:43;5.25;;;2.92;;
67140;SDS011;54058;52.010;5.546;2023-04-15T09:49:09;3.83;;;2.63;;
67140;SDS011;54058;52.010;5.546;2023-04-15T09:51:36;5.47;;;2.38;;
67140;SDS011;54058;52.010;5.546;2023-04-15T09:54:02;2.95;;;2.40;;
67140;SDS011;54058;52.010;5.546;2023-04-15T09:56:35;4.57;;;2.60;;
67140;SDS011;54058;52.010;5.546;2023-04-15T09:59:10;3.78;;;2.47;;
67140;SDS011;54058;52.010;5.546;2023-04-15T10:01:36;5.10;;;2.38;;
67140;SDS011;54058;52.010;5.546;2023-04-15T10:04:05;3.58;;;2.38;;
67140;SDS011;54058;52.010;5.546;2023-04-15T10:06:31;4.07;;;2.45;;
67140;SDS011;54058;52.010;5.546;2023-04-15T10:08:57;2.92;;;2.42;;
67140;SDS011;54058;52.010;5.546;2023-04-15T10:11:23;2.40;;;2.20;;
67140;SDS011;54058;52.010;5.546;2023-04-15T10:13:52;2.67;;;2.10;;
67140;SDS011;54058;52.010;5.546;2023-04-15T10:16:20;3.80;;;2.35;;
67140;SDS011;54058;52.010;5.546;2023-04-15T10:18:47;2.10;;;1.50;;
67140;SDS011;54058;52.010;5.546;2023-04-15T10:21:21;2.58;;;2.00;;
67140;SDS011;54058;52.010;5.546;2023-04-15T10:23:47;3.77;;;2.57;;
67140;SDS011;54058;52.010;5.546;2023-04-15T10:26:14;2.08;;;1.52;;
67140;SDS011;54058;52.010;5.546;2023-04-15T10:31:07;5.50;;;1.50;;
67140;SDS011;54058;52.010;5.546;2023-04-15T10:33:36;4.50;;;1.92;;
67140;SDS011;54058;52.010;5.546;2023-04-15T10:36:03;2.80;;;1.83;;
67140;SDS011;54058;52.010;5.546;2023-04-15T10:43:44;3.17;;;2.30;;
67140;SDS011;54058;52.010;5.546;2023-04-15T10:46:10;6.07;;;2.67;;
67140;SDS011;54058;52.010;5.546;2023-04-15T10:48:45;3.55;;;2.88;;
67140;SDS011;54058;52.010;5.546;2023-04-15T10:51:12;5.28;;;2.60;;
67140;SDS011;54058;52.010;5.546;2023-04-15T10:53:38;6.40;;;3.13;;
67140;SDS011;54058;52.010;5.546;2023-04-15T10:56:06;4.43;;;2.50;;
67140;SDS011;54058;52.010;5.546;2023-04-15T10:58:42;6.38;;;2.70;;
67140;SDS011;54058;52.010;5.546;2023-04-15T11:01:08;3.95;;;2.38;;
67140;SDS011;54058;52.010;5.546;2023-04-15T11:03:37;5.18;;;2.80;;
67140;SDS011;54058;52.010;5.546;2023-04-15T11:06:06;3.85;;;2.53;;
67140;SDS011;54058;52.010;5.546;2023-04-15T11:11:21;5.20;;;2.80;;
67140;SDS011;54058;52.010;5.546;2023-04-15T11:13:47;7.53;;;2.50;;
67140;SDS011;54058;52.010;5.546;2023-04-15T11:16:14;4.57;;;2.40;;
67140;SDS011;54058;52.010;5.546;2023-04-15T11:18:40;3.15;;;2.80;;
67140;SDS011;54058;52.010;5.546;2023-04-15T11:21:06;3.45;;;2.90;;
67140;SDS011;54058;52.010;5.546;2023-04-15T11:23:40;4.25;;;2.80;;
67140;SDS011;54058;52.010;5.546;2023-04-15T11:26:11;3.97;;;2.83;;
67140;SDS011;54058;52.010;5.546;2023-04-15T11:28:46;3.03;;;2.42;;
67140;SDS011;54058;52.010;5.546;2023-04-15T11:31:12;4.25;;;2.50;;
67140;SDS011;54058;52.010;5.546;2023-04-15T11:33:46;4.75;;;2.67;;
67140;SDS011;54058;52.010;5.546;2023-04-15T11:36:25;1.77;;;1.67;;
67140;SDS011;54058;52.010;5.546;2023-04-15T11:38:51;2.10;;;1.90;;
67140;SDS011;54058;52.010;5.546;2023-04-15T11:41:21;2.65;;;2.35;;
67140;SDS011;54058;52.010;5.546;2023-04-15T11:43:47;3.65;;;2.20;;
67140;SDS011;54058;52.010;5.546;2023-04-15T11:46:14;3.90;;;2.53;;
67140;SDS011;54058;52.010;5.546;2023-04-15T11:48:43;3.75;;;2.42;;
67140;SDS011;54058;52.010;5.546;2023-04-15T11:51:10;5.07;;;2.50;;
67140;SDS011;54058;52.010;5.546;2023-04-15T11:56:03;2.93;;;2.07;;
67140;SDS011;54058;52.010;5.546;2023-04-15T11:58:29;4.05;;;2.10;;
67140;SDS011;54058;52.010;5.546;2023-04-15T12:00:59;7.88;;;2.28;;
67140;SDS011;54058;52.010;5.546;2023-04-15T12:03:41;2.20;;;1.85;;
67140;SDS011;54058;52.010;5.546;2023-04-15T12:11:48;4.35;;;2.10;;
67140;SDS011;54058;52.010;5.546;2023-04-15T12:16:49;2.17;;;1.85;;
67140;SDS011;54058;52.010;5.546;2023-04-15T12:25:17;3.28;;;1.80;;
67140;SDS011;54058;52.010;5.546;2023-04-15T12:28:30;2.53;;;1.27;;
67140;SDS011;54058;52.010;5.546;2023-04-15T12:31:15;2.95;;;1.58;;
67140;SDS011;54058;52.010;5.546;2023-04-15T12:37:12;2.10;;;1.35;;
67140;SDS011;54058;52.010;5.546;2023-04-15T12:46:32;1.85;;;1.33;;
67140;SDS011;54058;52.010;5.546;2023-04-15T12:49:10;1.92;;;1.17;;
67140;SDS011;54058;52.010;5.546;2023-04-15T12:52:22;6.30;;;1.40;;
67140;SDS011;54058;52.010;5.546;2023-04-15T12:55:25;5.05;;;1.30;;
67140;SDS011;54058;52.010;5.546;2023-04-15T12:58:16;1.38;;;1.23;;
67140;SDS011;54058;52.010;5.546;2023-04-15T13:01:14;4.85;;;1.35;;
67140;SDS011;54058;52.010;5.546;2023-04-15T13:04:21;3.22;;;1.40;;
67140;SDS011;54058;52.010;5.546;2023-04-15T13:07:00;3.22;;;1.13;;
67140;SDS011;54058;52.010;5.546;2023-04-15T13:09:26;2.90;;;1.50;;
67140;SDS011;54058;52.010;5.546;2023-04-15T13:11:51;2.15;;;1.55;;
67140;SDS011;54058;52.010;5.546;2023-04-15T13:14:18;1.98;;;1.20;;
67140;SDS011;54058;52.010;5.546;2023-04-15T13:16:44;2.97;;;1.30;;
67140;SDS011;54058;52.010;5.546;2023-04-15T13:19:10;4.35;;;1.23;;
67140;SDS011;54058;52.010;5.546;2023-04-15T13:21:35;3.08;;;1.30;;
67140;SDS011;54058;52.010;5.546;2023-04-15T13:24:01;1.55;;;1.23;;
67140;SDS011;54058;52.010;5.546;2023-04-15T13:26:27;2.38;;;1.15;;
67140;SDS011;54058;52.010;5.546;2023-04-15T13:28:53;2.50;;;1.10;;
67140;SDS011;54058;52.010;5.546;2023-04-15T13:31:19;2.55;;;1.50;;
67140;SDS011;54058;52.010;5.546;2023-04-15T13:33:45;1.88;;;1.20;;
67140;SDS011;54058;52.010;5.546;2023-04-15T13:36:10;1.67;;;1.05;;
67140;SDS011;54058;52.010;5.546;2023-04-15T13:38:36;3.92;;;1.30;;
67140;SDS011;54058;52.010;5.546;2023-04-15T13:41:01;1.67;;;1.00;;
67140;SDS011;54058;52.010;5.546;2023-04-15T13:43:27;5.30;;;1.23;;
67140;SDS011;54058;52.010;5.546;2023-04-15T13:45:53;1.80;;;0.98;;
67140;SDS011;54058;52.010;5.546;2023-04-15T13:48:19;0.95;;;0.77;;
67140;SDS011;54058;52.010;5.546;2023-04-15T13:50:45;3.53;;;0.93;;
67140;SDS011;54058;52.010;5.546;2023-04-15T13:53:11;1.35;;;0.88;;
67140;SDS011;54058;52.010;5.546;2023-04-15T13:55:37;1.73;;;1.00;;
67140;SDS011;54058;52.010;5.546;2023-04-15T13:58:05;5.32;;;1.13;;
67140;SDS011;54058;52.010;5.546;2023-04-15T14:00:32;3.40;;;0.90;;
67140;SDS011;54058;52.010;5.546;2023-04-15T14:02:57;2.15;;;0.80;;
67140;SDS011;54058;52.010;5.546;2023-04-15T14:05:23;3.65;;;1.27;;
67140;SDS011;54058;52.010;5.546;2023-04-15T14:07:48;2.15;;;1.10;;
67140;SDS011;54058;52.010;5.546;2023-04-15T14:10:14;3.50;;;1.27;;
67140;SDS011;54058;52.010;5.546;2023-04-15T14:12:39;1.30;;;0.90;;
67140;SDS011;54058;52.010;5.546;2023-04-15T14:15:05;2.45;;;0.90;;
67140;SDS011;54058;52.010;5.546;2023-04-15T14:17:31;1.65;;;1.00;;
67140;SDS011;54058;52.010;5.546;2023-04-15T14:19:57;1.80;;;0.82;;
67140;SDS011;54058;52.010;5.546;2023-04-15T14:22:23;2.35;;;0.88;;
67140;SDS011;54058;52.010;5.546;2023-04-15T14:24:50;2.50;;;1.05;;
67140;SDS011;54058;52.010;5.546;2023-04-15T14:27:18;2.17;;;0.95;;
67140;SDS011;54058;52.010;5.546;2023-04-15T14:29:43;2.33;;;0.90;;
67140;SDS011;54058;52.010;5.546;2023-04-15T14:32:09;2.83;;;0.90;;
67140;SDS011;54058;52.010;5.546;2023-04-15T14:34:35;3.17;;;1.05;;
67140;SDS011;54058;52.010;5.546;2023-04-15T14:37:01;3.97;;;1.42;;
67140;SDS011;54058;52.010;5.546;2023-04-15T14:39:27;2.22;;;1.10;;
67140;SDS011;54058;52.010;5.546;2023-04-15T14:41:52;3.90;;;1.45;;
67140;SDS011;54058;52.010;5.546;2023-04-15T14:44:19;2.10;;;1.15;;
67140;SDS011;54058;52.010;5.546;2023-04-15T14:46:45;2.72;;;1.20;;
67140;SDS011;54058;52.010;5.546;2023-04-15T14:49:10;2.38;;;1.15;;
67140;SDS011;54058;52.010;5.546;2023-04-15T14:51:36;2.65;;;1.42;;
67140;SDS011;54058;52.010;5.546;2023-04-15T14:54:02;5.10;;;1.38;;
67140;SDS011;54058;52.010;5.546;2023-04-15T14:56:27;4.43;;;1.65;;
67140;SDS011;54058;52.010;5.546;2023-04-15T14:58:53;4.57;;;1.60;;
67140;SDS011;54058;52.010;5.546;2023-04-15T15:01:19;12.65;;;3.78;;
67140;SDS011;54058;52.010;5.546;2023-04-15T15:03:45;9.23;;;3.53;;
67140;SDS011;54058;52.010;5.546;2023-04-15T15:06:11;5.32;;;2.00;;
67140;SDS011;54058;52.010;5.546;2023-04-15T15:08:37;6.45;;;2.00;;
67140;SDS011;54058;52.010;5.546;2023-04-15T15:11:03;5.95;;;1.60;;
67140;SDS011;54058;52.010;5.546;2023-04-15T15:13:28;5.57;;;1.60;;
67140;SDS011;54058;52.010;5.546;2023-04-15T15:15:55;8.98;;;1.95;;
67140;SDS011;54058;52.010;5.546;2023-04-15T15:18:21;12.57;;;2.28;;
67140;SDS011;54058;52.010;5.546;2023-04-15T15:20:46;4.50;;;1.67;;
67140;SDS011;54058;52.010;5.546;2023-04-15T15:23:13;6.20;;;1.67;;
67140;SDS011;54058;52.010;5.546;2023-04-15T15:25:39;6.38;;;1.48;;
67140;SDS011;54058;52.010;5.546;2023-04-15T15:28:05;3.42;;;1.35;;